Terminal Aerodrome Forecast
Issued by NWS

Home | Current Version | Previous Version | Text Only | Print | Product List | Glossary Off
Versions: 1 2 3 4 5 6 7 8 9 10 11 12

950
FTUS43 KFGF 010520
TAFBJI
TAF
KBJI 010520Z 0106/0206 07005KT P6SM FEW250
     FM011600 02006KT P6SM FEW250
     FM020100 VRB03KT P6SM SKC=

USA.gov is the U.S. government's official web portal to all federal, state and local government web resources and services.